KCEZ/CEZ METAR and TAF weather

Enter ICAO airport designator
Station Type Date Time Source
KCEZ METAR 2020/07/10 14:53 UTC NOAA

KCEZ 101453Z AUTO VRB03KT 10SM CLR 23/00 A3032 RMK AO2 SLP179 T02330000 51011


Station Type Date Time Source
KCEZ Decoded METAR 2020/07/10 14:53 UTC NOAA

CORTEZ MONTEZUMA COUNTY AIRPORT , CO, United States (KCEZ) 37-18N 108-38W 1797M
Jul 10, 2020 - 10:53 AM EDT / 2020.07.10 1453 UTC
Wind: Variable at 3 MPH (3 KT):0
Visibility: 10 mile(s):0
Sky conditions: clear
Temperature: 73.9 F (23.3 C)
Dew Point: 32.0 F (0.0 C)
Relative Humidity: 21%
Pressure (altimeter): 30.32 in. Hg (1026 hPa)
Pressure tendency: 0.03 inches (1.1 hPa) higher than three hours ago
ob: KCEZ 101453Z AUTO VRB03KT 10SM CLR 23/00 A3032 RMK AO2 SLP179 T02330000 51011
cycle: 15

Station Type Date Time Source
KCEZ TAF UTC NOAA

Error!

Example: see airport list